createdAt,value
2019-04-20T00:05:13.320Z,16.60
2019-04-20T00:07:52.165Z,16.60
2019-04-20T00:10:24.330Z,16.60
2019-04-20T00:13:09.014Z,16.50
2019-04-20T00:15:26.522Z,16.50
2019-04-20T00:18:01.229Z,16.40
2019-04-20T00:20:32.341Z,16.40
2019-04-20T00:23:24.963Z,16.40
2019-04-20T00:26:17.314Z,16.30
2019-04-20T00:28:55.879Z,16.30
2019-04-20T00:31:27.231Z,16.20
2019-04-20T00:33:56.137Z,16.20
2019-04-20T00:36:17.957Z,16.20
2019-04-20T00:38:53.594Z,16.20
2019-04-20T00:41:24.130Z,16.10
2019-04-20T00:43:57.800Z,16.10
2019-04-20T00:46:36.037Z,16.10
2019-04-20T00:49:15.164Z,16.10
2019-04-20T00:51:52.594Z,16.00
2019-04-20T00:54:03.917Z,16.00
2019-04-20T00:56:35.100Z,15.90
2019-04-20T00:59:17.186Z,15.90
2019-04-20T01:01:54.552Z,15.80
2019-04-20T01:04:25.441Z,15.80
2019-04-20T01:07:26.317Z,15.80
2019-04-20T01:09:54.223Z,15.80
2019-04-20T01:12:30.270Z,15.70
2019-04-20T01:15:05.376Z,15.70
2019-04-20T01:32:15.079Z,15.40
2019-04-20T01:34:50.215Z,15.40
2019-04-20T01:37:24.704Z,15.30
2019-04-20T01:39:46.675Z,15.30
2019-04-20T01:42:36.102Z,15.30
2019-04-20T01:45:14.610Z,15.20
2019-04-20T01:47:45.259Z,15.20
2019-04-20T01:50:22.134Z,15.20
2019-04-20T01:52:58.062Z,15.10
2019-04-20T01:55:48.244Z,15.10
2019-04-20T02:01:09.815Z,15.10
2019-04-20T02:04:01.759Z,15.00
2019-04-20T02:06:41.878Z,15.00
2019-04-20T02:09:11.995Z,14.90
2019-04-20T02:11:41.372Z,14.90
2019-04-20T02:14:11.958Z,14.90
2019-04-20T02:19:43.097Z,14.80
2019-04-20T02:22:13.642Z,14.80
2019-04-20T02:24:32.080Z,14.70
2019-04-20T02:27:04.097Z,14.70
2019-04-20T02:29:59.856Z,14.70
2019-04-20T02:32:36.555Z,14.70
2019-04-20T02:35:16.781Z,14.60
2019-04-20T02:43:15.359Z,14.60
2019-04-20T02:54:11.091Z,14.50
2019-04-20T02:59:27.094Z,14.40
2019-04-20T03:01:47.346Z,14.40
2019-04-20T03:04:02.060Z,14.40
2019-04-20T03:06:53.540Z,14.40
2019-04-20T03:09:31.517Z,14.30
2019-04-20T03:12:04.458Z,14.30
2019-04-20T03:14:29.258Z,14.30
2019-04-20T03:17:09.894Z,14.20
2019-04-20T03:19:32.820Z,14.20
2019-04-20T03:22:16.075Z,14.20
2019-04-20T03:24:54.054Z,14.20
2019-04-20T03:27:16.028Z,14.10
2019-04-20T03:29:56.661Z,14.00
2019-04-20T03:32:57.304Z,14.00
2019-04-20T03:43:01.097Z,13.90
2019-04-20T03:45:44.681Z,13.80
2019-04-20T03:48:21.345Z,13.80
2019-04-20T03:50:56.482Z,13.80
2019-04-20T03:53:34.475Z,13.80
2019-04-20T03:56:35.132Z,13.80
2019-04-20T03:59:21.295Z,13.80
2019-04-20T04:05:04.357Z,13.80
2019-04-20T04:07:30.399Z,13.80
2019-04-20T04:10:06.720Z,13.80
2019-04-20T04:12:58.902Z,13.80
2019-04-20T04:15:29.627Z,13.80
2019-04-20T04:18:07.504Z,13.80
2019-04-20T04:20:40.746Z,13.70
2019-04-20T04:23:22.006Z,13.70
2019-04-20T04:25:58.378Z,13.70
2019-04-20T04:28:26.244Z,13.70
2019-04-20T04:31:04.169Z,13.60
2019-04-20T04:35:56.636Z,13.70
2019-04-20T04:38:39.598Z,13.60
2019-04-20T04:41:13.461Z,13.60
2019-04-20T04:43:40.207Z,13.60
2019-04-20T04:45:53.314Z,13.60
2019-04-20T04:51:25.638Z,13.50
2019-04-20T04:53:58.097Z,13.50
2019-04-20T04:56:24.000Z,13.40
2019-04-20T04:58:54.551Z,13.40
2019-04-20T05:01:30.745Z,13.40
2019-04-20T05:04:23.246Z,13.40
2019-04-20T05:06:45.695Z,13.40
2019-04-20T05:09:23.715Z,13.40
2019-04-20T05:11:59.959Z,13.40
2019-04-20T05:14:32.271Z,13.60
2019-04-20T05:29:04.607Z,13.60
2019-04-20T05:31:33.997Z,13.60
2019-04-20T05:34:20.311Z,13.60
2019-04-20T05:36:53.028Z,13.60
2019-04-20T05:39:32.948Z,13.60
2019-04-20T05:42:21.516Z,13.70
2019-04-20T05:44:49.939Z,13.70
2019-04-20T05:47:38.715Z,13.90
2019-04-20T05:50:05.056Z,13.90
2019-04-20T05:52:50.216Z,13.90
2019-04-20T05:55:31.889Z,14.00
2019-04-20T05:58:02.002Z,14.00
2019-04-20T06:00:41.003Z,14.00
2019-04-20T06:03:15.250Z,14.00
2019-04-20T06:05:57.875Z,14.10
2019-04-20T06:08:42.733Z,14.10
2019-04-20T06:11:04.166Z,14.20
2019-04-20T06:13:49.766Z,14.20
2019-04-20T06:16:40.916Z,14.30
2019-04-20T06:19:18.237Z,14.40
2019-04-20T06:28:01.069Z,14.60
2019-04-20T06:30:33.186Z,14.70
2019-04-20T06:50:31.574Z,15.30
2019-04-20T06:53:58.653Z,15.20
2019-04-20T06:57:00.290Z,15.30
2019-04-20T06:59:33.449Z,15.30
2019-04-20T07:02:14.202Z,15.40
2019-04-20T07:07:15.704Z,15.50
2019-04-20T07:09:58.267Z,15.50
2019-04-20T07:12:12.852Z,15.60
2019-04-20T07:15:06.502Z,15.80
2019-04-20T07:20:46.425Z,15.90
2019-04-20T07:23:20.224Z,16.00
2019-04-20T07:25:44.647Z,16.10
2019-04-20T07:28:19.686Z,16.30
2019-04-20T07:30:46.319Z,16.40
2019-04-20T07:33:24.639Z,16.40
2019-04-20T07:35:50.835Z,16.50
2019-04-20T07:38:34.561Z,16.60
2019-04-20T07:41:08.228Z,16.60
2019-04-20T07:43:43.571Z,16.60
2019-04-20T07:46:10.516Z,16.30
2019-04-20T07:48:36.926Z,15.90
2019-04-20T07:51:01.178Z,15.50
2019-04-20T07:53:39.275Z,15.30
2019-04-20T07:56:17.825Z,15.20
2019-04-20T07:58:38.812Z,15.20
2019-04-20T08:01:32.853Z,15.20
2019-04-20T08:06:42.171Z,15.40
2019-04-20T08:09:24.741Z,15.60
2019-04-20T08:12:07.487Z,15.80
2019-04-20T08:14:41.173Z,15.90
2019-04-20T08:17:14.375Z,16.20
2019-04-20T08:19:36.725Z,16.40
2019-04-20T08:22:09.553Z,16.70
2019-04-20T08:24:32.729Z,16.90
2019-04-20T08:26:59.042Z,17.20
2019-04-20T08:29:44.263Z,17.50
2019-04-20T08:35:38.979Z,18.00
2019-04-20T08:38:37.929Z,18.30
2019-04-20T08:40:44.077Z,18.50
2019-04-20T08:43:34.549Z,18.70
2019-04-20T08:48:39.367Z,19.00
2019-04-20T08:51:03.608Z,19.20
2019-04-20T08:53:46.416Z,19.40
2019-04-20T08:55:55.336Z,19.50
2019-04-20T08:58:14.341Z,19.60
2019-04-20T09:00:50.182Z,19.80
2019-04-20T09:03:22.844Z,19.90
2019-04-20T09:05:56.596Z,20.00
2019-04-20T09:08:23.931Z,20.20
2019-04-20T09:11:05.889Z,20.30
2019-04-20T09:13:26.940Z,20.40
2019-04-20T09:18:47.686Z,20.70
2019-04-20T09:21:22.202Z,20.70
2019-04-20T09:24:09.137Z,20.90
2019-04-20T09:26:37.133Z,20.90
2019-04-20T09:29:12.129Z,21.00
2019-04-20T09:31:43.728Z,21.20
2019-04-20T09:34:42.437Z,21.10
2019-04-20T09:37:43.551Z,21.10
2019-04-20T09:40:34.954Z,21.20
2019-04-20T09:43:00.303Z,21.30
2019-04-20T09:45:40.117Z,21.60
2019-04-20T09:48:15.705Z,21.70
2019-04-20T09:51:00.889Z,21.70
2019-04-20T09:53:24.814Z,21.80
2019-04-20T09:55:57.726Z,21.90
2019-04-20T09:58:25.957Z,21.90
2019-04-20T10:01:03.180Z,22.00
2019-04-20T10:03:18.484Z,22.10
2019-04-20T10:05:48.055Z,22.20
2019-04-20T10:08:17.694Z,22.40
2019-04-20T10:10:48.930Z,22.50
2019-04-20T10:13:19.521Z,22.70
2019-04-20T10:15:50.013Z,22.70
2019-04-20T10:18:19.810Z,22.70
2019-04-20T10:20:49.651Z,22.70
2019-04-20T10:23:38.703Z,22.80
2019-04-20T10:26:08.922Z,22.90
2019-04-20T10:28:39.409Z,23.10
2019-04-20T10:31:09.035Z,23.30
2019-04-20T10:33:39.604Z,23.40
2019-04-20T10:36:17.378Z,23.50
2019-04-20T10:38:46.915Z,23.70
2019-04-20T10:41:29.758Z,23.80
2019-04-20T10:44:07.184Z,23.90
2019-04-20T10:46:36.822Z,24.00
2019-04-20T10:49:07.680Z,24.00
2019-04-20T10:54:24.346Z,24.10
2019-04-20T10:56:55.428Z,24.20
2019-04-20T10:59:25.702Z,24.40
2019-04-20T11:01:55.949Z,24.50
2019-04-20T11:07:12.395Z,24.60
2019-04-20T11:09:44.740Z,24.70
2019-04-20T11:12:14.543Z,24.60
2019-04-20T11:14:45.700Z,24.70
2019-04-20T11:17:33.361Z,24.70
2019-04-20T11:20:03.433Z,24.70
2019-04-20T11:22:34.744Z,24.70
2019-04-20T11:25:04.518Z,24.80
2019-04-20T11:27:34.247Z,24.90
2019-04-20T11:30:05.689Z,24.90
2019-04-20T11:32:38.142Z,25.00
2019-04-20T11:35:18.064Z,25.10
2019-04-20T11:37:39.423Z,25.20
2019-04-20T11:40:11.240Z,25.40
2019-04-20T11:42:42.102Z,25.40
2019-04-20T11:45:15.653Z,25.30
2019-04-20T11:47:47.425Z,25.40
2019-04-20T11:53:26.539Z,25.60
2019-04-20T11:55:54.647Z,25.70
2019-04-20T11:58:24.083Z,25.70
2019-04-20T12:01:02.946Z,25.70
2019-04-20T12:03:35.462Z,25.70
2019-04-20T12:06:01.102Z,25.70
2019-04-20T12:08:29.292Z,25.60
2019-04-20T12:14:00.570Z,25.50
2019-04-20T12:16:39.591Z,25.80
2019-04-20T12:27:27.227Z,26.10
2019-04-20T12:30:01.704Z,26.10
2019-04-20T12:32:44.872Z,26.20
2019-04-20T12:37:59.335Z,26.50
2019-04-20T12:40:38.379Z,26.60
2019-04-20T12:49:07.790Z,26.80
2019-04-20T12:52:10.271Z,26.70
2019-04-20T12:54:45.144Z,26.60
2019-04-20T12:57:20.703Z,26.60
2019-04-20T13:02:49.470Z,26.50
2019-04-20T13:05:58.098Z,26.70
2019-04-20T13:08:36.897Z,26.70
2019-04-20T13:11:30.940Z,26.70
2019-04-20T13:14:44.293Z,26.70
2019-04-20T13:32:34.382Z,26.50
2019-04-20T13:50:31.647Z,27.10
2019-04-20T14:51:49.967Z,27.30
2019-04-20T15:03:49.953Z,27.50
2019-04-20T15:14:20.641Z,27.40
2019-04-20T15:16:52.937Z,27.30
2019-04-20T15:19:57.238Z,27.40
2019-04-20T15:22:43.376Z,27.50
2019-04-20T15:25:18.176Z,27.30
2019-04-20T15:28:30.344Z,27.10
2019-04-20T15:37:37.295Z,27.30
2019-04-20T15:45:43.438Z,28.30
2019-04-20T15:53:44.776Z,28.50
2019-04-20T15:56:14.649Z,28.60
2019-04-20T15:58:44.517Z,28.60
2019-04-20T16:04:35.592Z,29.20
2019-04-20T16:07:03.454Z,29.40
2019-04-20T16:09:33.718Z,29.40
2019-04-20T16:12:04.694Z,29.00
2019-04-20T16:14:35.497Z,28.90
2019-04-20T16:17:31.019Z,28.50
2019-04-20T16:20:03.927Z,28.00
2019-04-20T16:22:28.796Z,27.30
2019-04-20T16:25:17.225Z,27.00
2019-04-20T16:30:53.802Z,26.40
2019-04-20T16:33:24.156Z,26.30
2019-04-20T16:35:54.407Z,26.20
2019-04-20T16:38:30.379Z,26.00
2019-04-20T16:41:00.054Z,25.90
2019-04-20T16:43:35.724Z,25.50
2019-04-20T16:46:01.356Z,25.30
2019-04-20T16:48:34.237Z,25.30
2019-04-20T16:51:04.872Z,25.20
2019-04-20T16:53:35.034Z,25.00
2019-04-20T16:56:04.636Z,24.90
2019-04-20T16:58:34.115Z,24.70
2019-04-20T17:01:03.777Z,24.60
2019-04-20T17:03:44.520Z,24.50
2019-04-20T17:06:06.359Z,24.50
2019-04-20T17:08:37.084Z,24.50
2019-04-20T17:11:07.798Z,24.40
2019-04-20T17:13:45.307Z,24.20
2019-04-20T17:19:23.945Z,23.90
2019-04-20T17:21:57.109Z,23.80
2019-04-20T17:24:25.059Z,23.70
2019-04-20T17:27:08.794Z,23.60
2019-04-20T17:29:50.275Z,23.70
2019-04-20T17:32:23.236Z,23.60
2019-04-20T17:35:04.650Z,23.50
2019-04-20T17:37:24.593Z,23.40
2019-04-20T17:40:10.794Z,23.30
2019-04-20T17:42:53.078Z,23.30
2019-04-20T17:45:28.855Z,23.10
2019-04-20T17:48:01.805Z,23.00
2019-04-20T17:50:35.695Z,22.90
2019-04-20T17:53:07.334Z,22.80
2019-04-20T17:55:38.920Z,22.80
2019-04-20T17:58:01.682Z,22.70
2019-04-20T18:00:47.534Z,22.50
2019-04-20T18:03:54.074Z,22.40
2019-04-20T18:06:08.309Z,22.30
2019-04-20T18:08:35.964Z,22.20
2019-04-20T18:11:01.794Z,22.10
2019-04-20T18:13:45.030Z,22.00
2019-04-20T18:16:45.381Z,21.90
2019-04-20T18:19:32.763Z,21.80
2019-04-20T18:22:05.831Z,21.70
2019-04-20T18:24:55.836Z,21.60
2019-04-20T18:27:35.183Z,21.50
2019-04-20T18:29:58.912Z,21.40
2019-04-20T18:32:37.782Z,21.30
2019-04-20T18:43:48.657Z,20.90
2019-04-20T18:46:34.285Z,20.80
2019-04-20T18:49:04.795Z,20.70
2019-04-20T18:51:17.642Z,20.50
2019-04-20T18:54:04.954Z,20.50
2019-04-20T18:56:33.053Z,20.40
2019-04-20T19:02:35.630Z,20.30
2019-04-20T19:10:31.349Z,19.90
2019-04-20T19:13:08.095Z,19.80
2019-04-20T19:16:06.857Z,19.80
2019-04-20T19:18:59.470Z,19.70
2019-04-20T19:21:17.228Z,19.70
2019-04-20T19:23:56.275Z,19.60
2019-04-20T19:26:21.391Z,19.50
2019-04-20T19:28:54.011Z,19.40
2019-04-20T19:31:41.343Z,19.40
2019-04-20T19:34:13.123Z,19.30
2019-04-20T19:36:34.253Z,19.20
2019-04-20T19:39:17.253Z,19.20
2019-04-20T19:41:38.965Z,19.10
2019-04-20T19:44:15.885Z,19.10
2019-04-20T19:47:01.644Z,19.00
2019-04-20T19:49:25.045Z,19.00
2019-04-20T19:52:51.454Z,18.90
2019-04-20T20:39:27.734Z,18.00
2019-04-20T20:51:49.798Z,17.70
2019-04-20T20:54:09.211Z,17.60
2019-04-20T20:56:35.846Z,17.60
2019-04-20T20:59:26.923Z,17.50
2019-04-20T21:02:00.959Z,17.40
2019-04-20T21:04:41.704Z,17.40
2019-04-20T21:07:22.592Z,17.40
2019-04-20T21:09:58.701Z,17.30
2019-04-20T21:12:42.882Z,17.30
2019-04-20T21:15:18.326Z,17.30
2019-04-20T21:18:14.129Z,17.20
2019-04-20T21:20:38.243Z,17.20
2019-04-20T21:23:10.988Z,17.10
2019-04-20T21:25:33.613Z,17.10
2019-04-20T21:27:57.049Z,17.10
2019-04-20T21:30:41.589Z,17.00
2019-04-20T21:33:06.038Z,17.00
2019-04-20T21:35:46.628Z,16.90
2019-04-20T21:38:18.251Z,16.90
2019-04-20T21:40:49.675Z,16.90
2019-04-20T21:43:20.615Z,16.80
2019-04-20T21:45:59.469Z,16.80
2019-04-20T21:48:48.929Z,16.70
2019-04-20T21:51:16.527Z,16.60
2019-04-20T21:53:35.394Z,16.60
2019-04-20T21:56:08.096Z,16.50
2019-04-20T21:58:51.368Z,16.50
2019-04-20T22:01:35.737Z,16.40
2019-04-20T22:04:03.382Z,16.30
2019-04-20T22:06:36.274Z,16.30
2019-04-20T22:09:10.873Z,16.30
2019-04-20T22:11:43.916Z,16.20
2019-04-20T22:14:18.612Z,16.20
2019-04-20T22:16:49.587Z,16.10
2019-04-20T22:19:36.676Z,16.10
2019-04-20T22:22:05.576Z,16.00
2019-04-20T22:24:44.969Z,16.00
2019-04-20T22:27:09.794Z,15.90
2019-04-20T22:29:38.533Z,15.90
2019-04-20T22:32:13.092Z,15.80
2019-04-20T22:34:40.309Z,15.80
2019-04-20T22:37:15.361Z,15.70
2019-04-20T22:39:55.914Z,15.70
2019-04-20T22:42:26.025Z,15.60
2019-04-20T22:51:19.649Z,15.50
2019-04-20T22:53:54.348Z,15.40
2019-04-20T22:56:35.357Z,15.40
2019-04-20T22:59:01.108Z,15.30
2019-04-20T23:01:29.899Z,15.30
2019-04-20T23:03:59.040Z,15.20
2019-04-20T23:06:37.383Z,15.20
2019-04-20T23:09:10.229Z,15.20
2019-04-20T23:11:43.137Z,15.10
2019-04-20T23:14:14.319Z,15.00
2019-04-20T23:17:08.339Z,15.00
2019-04-20T23:19:52.659Z,15.00
2019-04-20T23:22:33.810Z,15.00
2019-04-20T23:24:59.483Z,14.90
2019-04-20T23:27:51.255Z,14.90
2019-04-20T23:30:25.201Z,14.80
2019-04-20T23:33:12.218Z,14.80
2019-04-20T23:35:56.272Z,14.70
2019-04-20T23:38:59.824Z,14.70
2019-04-20T23:42:01.483Z,14.60
2019-04-20T23:44:53.030Z,14.60
2019-04-20T23:47:46.569Z,14.60
2019-04-20T23:50:37.314Z,14.50
2019-04-20T23:53:18.176Z,14.50
2019-04-20T23:55:34.213Z,14.40
2019-04-20T23:58:07.425Z,14.40
